createdAt,value
2022-11-07T05:30:32.726Z,996.59
2022-11-07T05:31:32.677Z,996.59
2022-11-07T05:32:32.666Z,996.53
2022-11-07T05:33:32.676Z,996.56
2022-11-07T05:34:32.699Z,996.51
2022-11-07T05:35:32.639Z,996.55
2022-11-07T05:36:32.631Z,996.56
2022-11-07T05:37:32.612Z,996.57
2022-11-07T05:38:32.609Z,996.58
2022-11-07T05:39:32.615Z,996.53
2022-11-07T05:40:32.605Z,996.54
2022-11-07T05:41:32.589Z,996.48
2022-11-07T05:42:32.570Z,996.50
2022-11-07T05:43:32.565Z,996.50
2022-11-07T05:44:32.570Z,996.49
2022-11-07T05:45:32.537Z,996.47
2022-11-07T05:46:32.567Z,996.39
2022-11-07T05:47:32.525Z,996.39
2022-11-07T05:48:32.501Z,996.42
2022-11-07T05:49:32.503Z,996.39
2022-11-07T05:50:32.512Z,996.29
2022-11-07T05:51:32.491Z,996.35
2022-11-07T05:52:32.475Z,996.31
2022-11-07T05:53:32.493Z,996.35
2022-11-07T05:54:32.451Z,996.37
2022-11-07T05:55:32.421Z,996.38
2022-11-07T05:56:32.454Z,996.34
2022-11-07T05:57:32.403Z,996.36
2022-11-07T05:58:32.494Z,996.33
2022-11-07T05:59:32.394Z,996.37
2022-11-07T06:00:32.367Z,996.37
2022-11-07T06:01:32.454Z,996.38
2022-11-07T06:02:32.602Z,996.36
2022-11-07T06:03:32.398Z,996.42
2022-11-07T06:04:32.493Z,996.43
2022-11-07T06:05:32.350Z,996.39
2022-11-07T06:06:32.307Z,996.39
2022-11-07T06:07:32.384Z,996.41
2022-11-07T06:08:32.308Z,996.42
2022-11-07T06:09:32.279Z,996.46
2022-11-07T06:10:32.291Z,996.42
2022-11-07T06:11:32.252Z,996.47
2022-11-07T06:12:32.241Z,996.52
2022-11-07T06:13:32.269Z,996.48
2022-11-07T06:14:32.220Z,996.52
2022-11-07T06:15:32.204Z,996.50
2022-11-07T06:16:32.214Z,996.53
2022-11-07T06:17:32.187Z,996.53
2022-11-07T06:18:32.206Z,996.53
2022-11-07T06:19:32.165Z,996.57
2022-11-07T06:20:32.171Z,996.55
2022-11-07T06:21:32.141Z,996.49
2022-11-07T06:22:32.131Z,996.50
2022-11-07T06:23:32.136Z,996.53
2022-11-07T06:24:32.172Z,996.54
2022-11-07T06:25:32.130Z,996.56
2022-11-07T06:26:32.088Z,996.53
2022-11-07T06:27:32.099Z,996.55
2022-11-07T06:28:32.066Z,996.59
2022-11-07T06:29:32.055Z,996.63
2022-11-07T06:30:32.089Z,996.59
2022-11-07T06:31:32.036Z,996.61
2022-11-07T06:32:32.042Z,996.62
2022-11-07T06:33:32.011Z,996.66
2022-11-07T06:34:32.018Z,996.66
2022-11-07T06:35:31.999Z,996.63
2022-11-07T06:36:31.993Z,996.67
2022-11-07T06:37:31.970Z,996.69
2022-11-07T06:38:32.036Z,996.71
2022-11-07T06:39:31.944Z,996.70
2022-11-07T06:40:31.938Z,996.72
2022-11-07T06:41:31.921Z,996.69
2022-11-07T06:42:31.916Z,996.73
2022-11-07T06:43:33.859Z,996.69
2022-11-07T06:44:31.898Z,996.70
2022-11-07T06:45:31.878Z,996.72
2022-11-07T06:46:31.900Z,996.76
2022-11-07T06:47:31.857Z,996.78
2022-11-07T06:48:31.907Z,996.77
2022-11-07T06:49:31.866Z,996.85
2022-11-07T06:50:31.857Z,996.85
2022-11-07T06:51:31.849Z,996.85
2022-11-07T06:52:31.816Z,996.88
2022-11-07T06:53:31.800Z,996.94
2022-11-07T06:54:31.811Z,996.85
2022-11-07T06:55:31.775Z,996.84
2022-11-07T06:56:31.795Z,996.81
2022-11-07T06:57:31.751Z,996.81
2022-11-07T06:58:31.751Z,996.84
2022-11-07T06:59:31.739Z,996.87
2022-11-07T07:00:31.987Z,996.88
2022-11-07T07:01:31.868Z,996.86
2022-11-07T07:02:56.741Z,996.82
2022-11-07T07:03:32.715Z,996.87
2022-11-07T07:04:31.679Z,996.82
2022-11-07T07:05:31.763Z,996.85
2022-11-07T07:06:31.683Z,996.90
2022-11-07T07:07:31.669Z,996.95
2022-11-07T07:08:31.647Z,996.93
2022-11-07T07:09:31.646Z,997.00
2022-11-07T07:10:31.754Z,996.97
2022-11-07T07:11:31.632Z,996.99
2022-11-07T07:12:31.604Z,996.99
2022-11-07T07:13:31.595Z,997.01
2022-11-07T07:14:31.588Z,996.99
2022-11-07T07:15:47.487Z,997.00
2022-11-07T07:16:32.546Z,997.02
2022-11-07T07:17:31.567Z,997.09
2022-11-07T07:18:31.528Z,997.04
2022-11-07T07:19:31.548Z,997.05
2022-11-07T07:20:31.506Z,997.04
2022-11-07T07:21:31.529Z,997.04
2022-11-07T07:22:31.608Z,996.98
2022-11-07T07:23:31.474Z,997.02
2022-11-07T07:24:31.514Z,997.03
2022-11-07T07:25:31.469Z,997.03
2022-11-07T07:26:31.466Z,997.03
2022-11-07T07:27:31.440Z,997.05
2022-11-07T07:28:31.511Z,997.07
2022-11-07T07:29:31.424Z,997.03
2022-11-07T07:30:31.418Z,997.07
2022-11-07T07:31:31.387Z,997.02
2022-11-07T07:32:31.370Z,997.03
2022-11-07T07:33:31.368Z,997.06
2022-11-07T07:34:31.377Z,997.00
2022-11-07T07:35:31.350Z,997.04
2022-11-07T07:36:31.329Z,997.03
2022-11-07T07:37:31.332Z,997.02
2022-11-07T07:38:31.423Z,997.11
2022-11-07T07:39:31.389Z,997.11
2022-11-07T07:40:31.308Z,997.05
2022-11-07T07:41:33.971Z,997.06
2022-11-07T07:42:32.284Z,997.08
2022-11-07T07:43:31.264Z,997.16
2022-11-07T07:44:31.288Z,997.16
2022-11-07T07:45:31.245Z,997.16
2022-11-07T07:46:31.337Z,997.22
2022-11-07T07:47:31.295Z,997.20
2022-11-07T07:48:31.218Z,997.20
2022-11-07T07:49:31.221Z,997.23
2022-11-07T07:50:31.180Z,997.26
2022-11-07T07:51:31.176Z,997.28
2022-11-07T07:52:31.172Z,997.27
2022-11-07T07:53:31.156Z,997.25
2022-11-07T07:54:31.281Z,997.30
2022-11-07T07:55:31.146Z,997.31
2022-11-07T07:56:31.237Z,997.31
2022-11-07T07:57:31.114Z,997.33
2022-11-07T07:58:31.122Z,997.32
2022-11-07T07:59:31.097Z,997.29
2022-11-07T08:00:31.117Z,997.26
2022-11-07T08:01:31.280Z,997.21
2022-11-07T08:02:31.172Z,997.22
2022-11-07T08:03:50.622Z,997.22
2022-11-07T08:04:32.058Z,997.25
2022-11-07T08:05:31.043Z,997.23
2022-11-07T08:06:31.030Z,997.25
2022-11-07T08:07:30.996Z,997.23
2022-11-07T08:08:36.851Z,997.25
2022-11-07T08:09:31.973Z,997.21
2022-11-07T08:10:46.431Z,997.20
2022-11-07T08:11:31.953Z,997.21
2022-11-07T08:12:30.942Z,997.17
2022-11-07T08:13:30.926Z,997.20
2022-11-07T08:14:31.079Z,997.22
2022-11-07T08:15:30.995Z,997.20
2022-11-07T08:16:31.003Z,997.23
2022-11-07T08:17:30.957Z,997.26
2022-11-07T08:18:30.872Z,997.20
2022-11-07T08:19:30.874Z,997.30
2022-11-07T08:20:30.877Z,997.35
2022-11-07T08:21:30.855Z,997.31
2022-11-07T08:22:30.852Z,997.36
2022-11-07T08:23:30.826Z,997.36
2022-11-07T08:24:30.814Z,997.37
2022-11-07T08:25:30.819Z,997.37
2022-11-07T08:26:30.945Z,997.30
2022-11-07T08:27:30.778Z,997.37
2022-11-07T08:28:30.804Z,997.37
2022-11-07T08:29:30.785Z,997.39
2022-11-07T08:30:30.842Z,997.35
2022-11-07T08:31:30.744Z,997.36
2022-11-07T08:32:30.726Z,997.36
2022-11-07T08:33:30.794Z,997.40
2022-11-07T08:34:30.781Z,997.37
2022-11-07T08:35:30.756Z,997.37
2022-11-07T08:36:30.685Z,997.42
2022-11-07T08:37:30.673Z,997.35
2022-11-07T08:38:30.704Z,997.32
2022-11-07T08:39:30.681Z,997.37
2022-11-07T08:40:30.649Z,997.34
2022-11-07T08:41:30.673Z,997.27
2022-11-07T08:42:30.634Z,997.27
2022-11-07T08:43:30.671Z,997.28
2022-11-07T08:44:30.607Z,997.28
2022-11-07T08:45:30.612Z,997.35
2022-11-07T08:46:30.591Z,997.36
2022-11-07T08:47:30.595Z,997.38
2022-11-07T08:48:30.588Z,997.38
2022-11-07T08:49:30.577Z,997.43
2022-11-07T08:50:30.535Z,997.42
2022-11-07T08:51:30.552Z,997.45
2022-11-07T08:52:30.509Z,997.45
2022-11-07T08:53:30.567Z,997.44
2022-11-07T08:54:30.491Z,997.48
2022-11-07T08:55:30.477Z,997.47
2022-11-07T08:56:30.470Z,997.47
2022-11-07T08:57:30.469Z,997.47
2022-11-07T08:58:30.602Z,997.49
2022-11-07T08:59:30.429Z,997.49
2022-11-07T09:00:30.452Z,997.52
2022-11-07T09:01:30.597Z,997.48
2022-11-07T09:03:45.212Z,997.54
2022-11-07T09:04:31.414Z,997.54
2022-11-07T09:05:30.365Z,997.55
2022-11-07T09:06:30.380Z,997.58
2022-11-07T09:07:30.462Z,997.55
2022-11-07T09:08:30.355Z,997.57
2022-11-07T09:09:30.352Z,997.58
2022-11-07T09:10:30.317Z,997.63
2022-11-07T09:11:30.335Z,997.54
2022-11-07T09:12:30.293Z,997.58
2022-11-07T09:13:30.327Z,997.52
2022-11-07T09:14:30.289Z,997.57
2022-11-07T09:15:30.259Z,997.56
2022-11-07T09:16:30.262Z,997.58
2022-11-07T09:17:30.238Z,997.55
2022-11-07T09:18:30.247Z,997.52
2022-11-07T09:19:30.216Z,997.48
2022-11-07T09:20:30.216Z,997.50
2022-11-07T09:21:30.306Z,997.52
2022-11-07T09:22:30.175Z,997.53
2022-11-07T09:23:30.187Z,997.51
2022-11-07T09:24:30.163Z,997.50
2022-11-07T09:25:30.214Z,997.60
2022-11-07T09:26:30.159Z,997.58
2022-11-07T09:27:30.472Z,997.55
2022-11-07T09:28:30.122Z,997.58
2022-11-07T09:29:30.104Z,997.61
2022-11-07T09:30:30.172Z,997.49
2022-11-07T09:31:30.144Z,997.54
2022-11-07T09:32:44.284Z,997.56
2022-11-07T09:33:31.106Z,997.63
2022-11-07T09:34:30.056Z,997.64
2022-11-07T09:35:30.052Z,997.63
2022-11-07T09:36:30.059Z,997.61
2022-11-07T09:37:30.060Z,997.60
2022-11-07T09:38:30.018Z,997.59
2022-11-07T09:39:30.052Z,997.67
2022-11-07T09:40:29.983Z,997.62
2022-11-07T09:41:29.996Z,997.64
2022-11-07T09:42:29.993Z,997.64
2022-11-07T09:43:29.994Z,997.54
2022-11-07T09:44:33.252Z,997.59
2022-11-07T09:45:29.976Z,997.57
2022-11-07T09:46:29.944Z,997.55
2022-11-07T09:47:29.943Z,997.56
2022-11-07T09:48:29.930Z,997.53
2022-11-07T09:49:29.894Z,997.52
2022-11-07T09:50:29.888Z,997.58
2022-11-07T09:51:29.923Z,997.59
2022-11-07T09:52:29.868Z,997.63
2022-11-07T09:53:29.870Z,997.66
2022-11-07T09:54:29.853Z,997.63
2022-11-07T09:55:29.857Z,997.64
2022-11-07T09:56:29.838Z,997.66
2022-11-07T09:57:29.881Z,997.61
2022-11-07T09:58:29.826Z,997.66
2022-11-07T09:59:29.810Z,997.69
2022-11-07T10:00:29.782Z,997.71
2022-11-07T10:01:29.907Z,997.69
2022-11-07T10:02:29.879Z,997.71
2022-11-07T10:03:29.764Z,997.70
2022-11-07T10:04:29.772Z,997.71
2022-11-07T10:05:29.721Z,997.76
2022-11-07T10:06:29.762Z,997.75
2022-11-07T10:07:29.736Z,997.78
2022-11-07T10:08:29.687Z,997.83
2022-11-07T10:09:29.716Z,997.83
2022-11-07T10:10:29.681Z,997.81
2022-11-07T10:11:29.666Z,997.85
2022-11-07T10:12:29.665Z,997.82
2022-11-07T10:13:29.634Z,997.81
2022-11-07T10:14:29.625Z,997.86
2022-11-07T10:15:29.657Z,997.84
2022-11-07T10:16:29.608Z,997.79
2022-11-07T10:17:29.626Z,997.93
2022-11-07T10:18:29.623Z,997.91
2022-11-07T10:19:29.562Z,997.91
2022-11-07T10:20:29.592Z,997.95
2022-11-07T10:21:38.571Z,997.91
2022-11-07T10:22:30.527Z,997.89
2022-11-07T10:23:29.523Z,997.89
2022-11-07T10:24:29.528Z,997.90
2022-11-07T10:25:29.619Z,997.92
2022-11-07T10:26:29.482Z,997.89
2022-11-07T10:27:29.472Z,997.94
2022-11-07T10:28:29.482Z,997.98
2022-11-07T10:29:29.473Z,997.90
2022-11-07T10:30:29.449Z,997.93
2022-11-07T10:31:29.427Z,997.95
2022-11-07T10:32:29.420Z,997.93
2022-11-07T10:33:29.495Z,997.94
2022-11-07T10:34:29.433Z,997.92
2022-11-07T10:35:29.431Z,997.98
2022-11-07T10:36:29.383Z,997.95
2022-11-07T10:37:29.386Z,998.01
2022-11-07T10:38:29.357Z,997.95
2022-11-07T10:39:29.421Z,997.98
2022-11-07T10:40:29.333Z,997.95
2022-11-07T10:41:29.348Z,997.95
2022-11-07T10:42:29.325Z,997.98
2022-11-07T10:43:29.331Z,998.00
2022-11-07T10:44:29.319Z,998.00
2022-11-07T10:45:29.505Z,998.01
2022-11-07T10:46:29.290Z,998.02
2022-11-07T10:47:29.265Z,997.97
2022-11-07T10:48:29.250Z,998.00
2022-11-07T10:49:29.316Z,997.98
2022-11-07T10:50:29.278Z,997.89
2022-11-07T10:51:29.308Z,997.84
2022-11-07T10:52:29.267Z,997.84
2022-11-07T10:53:29.199Z,997.84
2022-11-07T10:54:29.177Z,997.83
2022-11-07T10:55:29.201Z,997.76
2022-11-07T10:56:29.194Z,997.78
2022-11-07T10:57:29.193Z,997.81
2022-11-07T10:58:29.135Z,997.81
2022-11-07T10:59:34.761Z,997.72
2022-11-07T11:00:30.109Z,997.72
2022-11-07T11:01:29.234Z,997.78
2022-11-07T11:02:29.097Z,997.76
2022-11-07T11:03:43.344Z,997.75
2022-11-07T11:04:30.071Z,997.73
2022-11-07T11:05:29.208Z,997.74
2022-11-07T11:06:29.104Z,997.66
2022-11-07T11:07:29.055Z,997.69
2022-11-07T11:08:29.042Z,997.66
2022-11-07T11:09:29.041Z,997.66
2022-11-07T11:10:29.007Z,997.64
2022-11-07T11:11:29.032Z,997.72
2022-11-07T11:12:29.009Z,997.63
2022-11-07T11:13:28.993Z,997.61
2022-11-07T11:14:28.997Z,997.61
2022-11-07T11:15:34.494Z,997.58
2022-11-07T11:16:29.946Z,997.63
2022-11-07T11:17:29.004Z,997.64
2022-11-07T11:18:28.921Z,997.60
2022-11-07T11:19:28.928Z,997.53
2022-11-07T11:20:28.940Z,997.70
2022-11-07T11:21:28.889Z,997.60
2022-11-07T11:22:29.371Z,997.70
2022-11-07T11:23:28.883Z,997.58
2022-11-07T11:24:28.858Z,997.70
2022-11-07T11:25:28.866Z,997.63
2022-11-07T11:26:28.855Z,997.63
2022-11-07T11:27:28.841Z,997.64
2022-11-07T11:28:28.809Z,997.59
2022-11-07T11:29:28.796Z,997.61
2022-11-07T11:30:28.809Z,997.59
2022-11-07T11:31:28.796Z,997.55
2022-11-07T11:32:28.777Z,997.61
2022-11-07T11:33:28.759Z,997.58
2022-11-07T11:34:28.749Z,997.56
2022-11-07T11:35:28.759Z,997.54
2022-11-07T11:36:28.724Z,997.55
2022-11-07T11:37:28.737Z,997.56
2022-11-07T11:38:28.756Z,997.59
2022-11-07T11:39:28.696Z,997.54
2022-11-07T11:40:28.678Z,997.57
2022-11-07T11:41:28.677Z,997.55
2022-11-07T11:42:28.705Z,997.54
2022-11-07T11:43:28.661Z,997.53
2022-11-07T11:44:28.640Z,997.50
2022-11-07T11:45:28.640Z,997.62
2022-11-07T11:46:28.616Z,997.62
2022-11-07T11:47:34.073Z,997.67
2022-11-07T11:48:29.633Z,997.65
2022-11-07T11:49:28.583Z,997.63
2022-11-07T11:50:28.609Z,997.61
2022-11-07T11:51:28.569Z,997.66
2022-11-07T11:52:28.549Z,997.61
2022-11-07T11:53:28.541Z,997.61
2022-11-07T11:54:28.560Z,997.54
2022-11-07T11:55:28.538Z,997.54
2022-11-07T11:56:28.531Z,997.51
2022-11-07T11:57:28.496Z,997.56
2022-11-07T11:58:28.492Z,997.60
2022-11-07T11:59:28.481Z,997.59
2022-11-07T12:00:28.466Z,997.50
2022-11-07T12:01:28.480Z,997.56
2022-11-07T12:02:28.530Z,997.53
2022-11-07T12:03:28.453Z,997.56
2022-11-07T12:04:28.431Z,997.48
2022-11-07T12:05:28.415Z,997.58
2022-11-07T12:06:28.425Z,997.60
2022-11-07T12:07:28.389Z,997.57
2022-11-07T12:08:28.407Z,997.52
2022-11-07T12:09:28.372Z,997.55
2022-11-07T12:10:28.376Z,997.55
2022-11-07T12:11:28.369Z,997.53
2022-11-07T12:12:28.354Z,997.56
2022-11-07T12:13:28.320Z,997.60
2022-11-07T12:14:28.323Z,997.52
2022-11-07T12:15:28.321Z,997.54
2022-11-07T12:16:28.310Z,997.48
2022-11-07T12:17:28.275Z,997.53
2022-11-07T12:18:28.276Z,997.56
2022-11-07T12:19:28.272Z,997.50
2022-11-07T12:20:28.258Z,997.54
2022-11-07T12:21:28.255Z,997.58
2022-11-07T12:22:28.240Z,997.55
2022-11-07T12:23:28.210Z,997.52
2022-11-07T12:24:28.226Z,997.52
2022-11-07T12:25:28.201Z,997.50
2022-11-07T12:26:28.202Z,997.53
2022-11-07T12:27:28.180Z,997.54
2022-11-07T12:28:28.166Z,997.47
2022-11-07T12:29:28.151Z,997.45
2022-11-07T12:30:28.183Z,997.56
2022-11-07T12:31:28.147Z,997.57
2022-11-07T12:32:28.112Z,997.60
2022-11-07T12:33:28.101Z,997.53
2022-11-07T12:34:28.104Z,997.66
2022-11-07T12:35:28.092Z,997.59
2022-11-07T12:36:28.076Z,997.58
2022-11-07T12:37:28.074Z,997.57
2022-11-07T12:38:28.049Z,997.63
2022-11-07T12:39:28.049Z,997.60
2022-11-07T12:40:28.026Z,997.55
2022-11-07T12:41:28.043Z,997.52
2022-11-07T12:42:28.060Z,997.52
2022-11-07T12:43:27.992Z,997.57
2022-11-07T12:44:27.990Z,997.54
2022-11-07T12:45:28.274Z,997.52
2022-11-07T12:46:27.994Z,997.52
2022-11-07T12:47:27.952Z,997.52
2022-11-07T12:48:27.940Z,997.53
2022-11-07T12:49:27.979Z,997.52
2022-11-07T12:50:27.944Z,997.52
2022-11-07T12:51:27.922Z,997.56
2022-11-07T12:52:27.937Z,997.54
2022-11-07T12:53:27.901Z,997.50
2022-11-07T12:54:27.904Z,997.50
2022-11-07T12:55:27.881Z,997.50
2022-11-07T12:56:27.892Z,997.52
2022-11-07T12:57:27.859Z,997.51
2022-11-07T12:58:27.855Z,997.51
2022-11-07T12:59:27.827Z,997.54
2022-11-07T13:00:29.874Z,997.53
2022-11-07T13:01:27.985Z,997.51
2022-11-07T13:02:27.863Z,997.47
2022-11-07T13:03:27.795Z,997.45
2022-11-07T13:04:27.775Z,997.39
2022-11-07T13:05:27.762Z,997.43
2022-11-07T13:06:27.783Z,997.46
2022-11-07T13:07:27.748Z,997.40
2022-11-07T13:08:32.317Z,997.41
2022-11-07T13:09:27.712Z,997.43
2022-11-07T13:10:27.702Z,997.47
2022-11-07T13:11:27.703Z,997.43
2022-11-07T13:12:27.744Z,997.47
2022-11-07T13:13:27.710Z,997.49
2022-11-07T13:14:27.679Z,997.41
2022-11-07T13:15:27.673Z,997.48
2022-11-07T13:16:27.658Z,997.45
2022-11-07T13:17:27.692Z,997.47
2022-11-07T13:18:27.713Z,997.40
2022-11-07T13:19:31.202Z,997.42
2022-11-07T13:20:27.611Z,997.52
2022-11-07T13:21:27.636Z,997.47
2022-11-07T13:22:27.579Z,997.51
2022-11-07T13:23:27.564Z,997.52
2022-11-07T13:24:27.548Z,997.53
2022-11-07T13:25:27.572Z,997.51
2022-11-07T13:26:46.282Z,997.51
2022-11-07T13:27:28.535Z,997.61
2022-11-07T13:28:27.530Z,997.61
2022-11-07T13:29:27.530Z,997.66
2022-11-07T13:30:27.523Z,997.59
2022-11-07T13:31:27.497Z,997.63
2022-11-07T13:32:27.465Z,997.54
2022-11-07T13:33:27.473Z,997.61
2022-11-07T13:34:27.472Z,997.57
2022-11-07T13:35:27.458Z,997.59
2022-11-07T13:36:27.429Z,997.61
2022-11-07T13:37:27.405Z,997.63
2022-11-07T13:38:27.444Z,997.62
2022-11-07T13:39:27.392Z,997.61
2022-11-07T13:40:27.409Z,997.59
2022-11-07T13:41:27.384Z,997.56
2022-11-07T13:42:27.411Z,997.58
2022-11-07T13:43:27.369Z,997.51
2022-11-07T13:44:27.337Z,997.56
2022-11-07T13:45:27.337Z,997.51
2022-11-07T13:46:27.345Z,997.55
2022-11-07T13:47:27.317Z,997.50
2022-11-07T13:48:27.303Z,997.55
2022-11-07T13:49:27.313Z,997.57
2022-11-07T13:50:27.276Z,997.58
2022-11-07T13:51:27.262Z,997.53
2022-11-07T13:52:27.269Z,997.56
2022-11-07T13:53:27.272Z,997.58
2022-11-07T13:54:27.297Z,997.62
2022-11-07T13:55:27.217Z,997.62
2022-11-07T13:56:27.226Z,997.66
2022-11-07T13:57:27.197Z,997.65
2022-11-07T13:58:27.178Z,997.64
2022-11-07T13:59:27.197Z,997.64
2022-11-07T14:00:27.236Z,997.66
2022-11-07T14:01:27.326Z,997.67
2022-11-07T14:02:27.353Z,997.66
2022-11-07T14:03:27.129Z,997.64
2022-11-07T14:04:27.128Z,997.65
2022-11-07T14:05:27.144Z,997.64
2022-11-07T14:06:27.104Z,997.65
2022-11-07T14:07:27.083Z,997.65
2022-11-07T14:08:27.175Z,997.61
2022-11-07T14:09:27.077Z,997.64
2022-11-07T14:10:27.070Z,997.66
2022-11-07T14:11:27.081Z,997.63
2022-11-07T14:12:27.038Z,997.63
2022-11-07T14:13:27.018Z,997.67
2022-11-07T14:14:27.032Z,997.66
2022-11-07T14:15:27.017Z,997.63
2022-11-07T14:16:26.988Z,997.64
2022-11-07T14:17:27.001Z,997.65
2022-11-07T14:18:26.990Z,997.66
2022-11-07T14:19:26.968Z,997.67
2022-11-07T14:20:26.985Z,997.68
2022-11-07T14:21:27.008Z,997.67
2022-11-07T14:22:26.928Z,997.63
2022-11-07T14:23:26.911Z,997.68
2022-11-07T14:24:26.908Z,997.68
2022-11-07T14:25:26.887Z,997.71
2022-11-07T14:26:26.885Z,997.74
2022-11-07T14:27:26.897Z,997.75
2022-11-07T14:28:26.860Z,997.70
2022-11-07T14:29:26.844Z,997.75
2022-11-07T14:30:26.835Z,997.71
2022-11-07T14:31:26.838Z,997.70
2022-11-07T14:32:31.625Z,997.73
2022-11-07T14:33:27.834Z,997.69
2022-11-07T14:34:26.817Z,997.72
2022-11-07T14:35:26.791Z,997.67
2022-11-07T14:36:26.779Z,997.67
2022-11-07T14:37:26.796Z,997.68
2022-11-07T14:38:26.753Z,997.66
2022-11-07T14:39:26.753Z,997.65
2022-11-07T14:40:26.738Z,997.64
2022-11-07T14:41:26.729Z,997.62
2022-11-07T14:42:26.724Z,997.66
2022-11-07T14:43:26.695Z,997.65
2022-11-07T14:44:36.249Z,997.64
2022-11-07T14:46:05.704Z,997.70
2022-11-07T14:46:27.688Z,997.66
2022-11-07T14:47:26.652Z,997.68
2022-11-07T14:48:26.664Z,997.62
2022-11-07T14:49:26.637Z,997.69
2022-11-07T14:50:26.642Z,997.59
2022-11-07T14:51:26.641Z,997.67
2022-11-07T14:52:26.606Z,997.64
2022-11-07T14:53:26.598Z,997.68
2022-11-07T14:54:26.581Z,997.70
2022-11-07T14:55:26.599Z,997.69
2022-11-07T14:56:26.562Z,997.69
2022-11-07T14:57:26.572Z,997.68
2022-11-07T14:58:26.550Z,997.66
2022-11-07T14:59:26.536Z,997.71
2022-11-07T15:00:26.513Z,997.69
2022-11-07T15:01:26.685Z,997.68
2022-11-07T15:02:26.586Z,997.70
2022-11-07T15:03:26.484Z,997.68
2022-11-07T15:04:26.468Z,997.66
2022-11-07T15:05:26.464Z,997.66
2022-11-07T15:06:26.478Z,997.61
2022-11-07T15:07:26.443Z,997.64
2022-11-07T15:08:26.464Z,997.62
2022-11-07T15:09:26.443Z,997.63
2022-11-07T15:10:26.468Z,997.60
2022-11-07T15:11:26.417Z,997.58
2022-11-07T15:12:26.382Z,997.59
2022-11-07T15:13:26.405Z,997.60
2022-11-07T15:14:26.367Z,997.59
2022-11-07T15:15:26.353Z,997.56
2022-11-07T15:16:28.943Z,997.52
2022-11-07T15:17:26.351Z,997.50
2022-11-07T15:18:26.338Z,997.53
2022-11-07T15:19:26.327Z,997.46
2022-11-07T15:20:26.294Z,997.50
2022-11-07T15:21:26.323Z,997.54
2022-11-07T15:22:26.305Z,997.54
2022-11-07T15:23:26.296Z,997.54
2022-11-07T15:24:26.259Z,997.58
2022-11-07T15:25:26.294Z,997.58
2022-11-07T15:26:26.261Z,997.55
2022-11-07T15:27:26.232Z,997.59
2022-11-07T15:28:26.210Z,997.60
2022-11-07T15:29:26.200Z,997.57
2022-11-07T15:30:26.196Z,997.57
2022-11-07T15:31:26.182Z,997.62
2022-11-07T15:32:26.216Z,997.59
2022-11-07T15:33:26.172Z,997.61
2022-11-07T15:34:52.475Z,997.64
2022-11-07T15:35:43.529Z,997.60
2022-11-07T15:36:27.138Z,997.62
2022-11-07T15:37:26.136Z,997.66
2022-11-07T15:38:26.201Z,997.61
2022-11-07T15:39:26.104Z,997.68
2022-11-07T15:40:26.116Z,997.63
2022-11-07T15:41:26.073Z,997.65
2022-11-07T15:42:26.095Z,997.65
2022-11-07T15:43:26.053Z,997.63
2022-11-07T15:44:26.048Z,997.65
2022-11-07T15:45:26.050Z,997.68
2022-11-07T15:46:26.026Z,997.71
2022-11-07T15:47:26.012Z,997.72
2022-11-07T15:48:26.037Z,997.72
2022-11-07T15:49:25.991Z,997.78
2022-11-07T15:50:25.997Z,997.78
2022-11-07T15:51:25.974Z,997.76
2022-11-07T15:52:25.966Z,997.77
2022-11-07T15:53:25.954Z,997.78
2022-11-07T15:54:25.968Z,997.78
2022-11-07T15:55:25.934Z,997.76
2022-11-07T15:56:25.912Z,997.77
2022-11-07T15:57:25.939Z,997.72
2022-11-07T15:58:25.910Z,997.73
2022-11-07T15:59:25.916Z,997.69
2022-11-07T16:00:25.873Z,997.71
2022-11-07T16:01:26.012Z,997.77
2022-11-07T16:02:25.967Z,997.75
2022-11-07T16:03:25.854Z,997.72
2022-11-07T16:04:25.865Z,997.70
2022-11-07T16:05:25.859Z,997.66
2022-11-07T16:06:25.812Z,997.74
2022-11-07T16:07:25.802Z,997.67
2022-11-07T16:08:25.812Z,997.73
2022-11-07T16:09:25.776Z,997.74
2022-11-07T16:10:25.910Z,997.75
2022-11-07T16:11:25.795Z,997.72
2022-11-07T16:12:25.749Z,997.76
2022-11-07T16:13:25.739Z,997.75
2022-11-07T16:14:45.435Z,997.72
2022-11-07T16:15:26.733Z,997.75
2022-11-07T16:16:25.714Z,997.77
2022-11-07T16:17:25.683Z,997.76
2022-11-07T16:18:25.683Z,997.77
2022-11-07T16:19:25.673Z,997.74
2022-11-07T16:20:25.668Z,997.78
2022-11-07T16:21:25.674Z,997.77
2022-11-07T16:22:25.695Z,997.80
2022-11-07T16:23:25.632Z,997.82
2022-11-07T16:24:25.612Z,997.83
2022-11-07T16:25:25.616Z,997.86
2022-11-07T16:26:25.636Z,997.91
2022-11-07T16:27:25.619Z,997.91
2022-11-07T16:28:25.597Z,997.90
2022-11-07T16:29:25.566Z,998.02
2022-11-07T16:30:25.551Z,997.99
2022-11-07T16:31:25.540Z,998.04
2022-11-07T16:32:25.520Z,998.07
2022-11-07T16:33:25.559Z,998.06
2022-11-07T16:34:25.527Z,998.07
2022-11-07T16:35:25.511Z,998.13
2022-11-07T16:36:25.481Z,998.13
2022-11-07T16:37:25.524Z,998.10
2022-11-07T16:38:25.483Z,998.15
2022-11-07T16:39:25.480Z,998.15
2022-11-07T16:40:25.452Z,998.10
2022-11-07T16:41:25.428Z,998.12
2022-11-07T16:42:25.478Z,998.18
2022-11-07T16:43:25.401Z,998.20
2022-11-07T16:44:26.532Z,998.13
2022-11-07T16:45:25.391Z,998.15
2022-11-07T16:46:25.400Z,998.14
2022-11-07T16:47:25.371Z,998.11
2022-11-07T16:48:25.370Z,998.12
2022-11-07T16:49:25.345Z,998.16
2022-11-07T16:50:25.360Z,998.12
2022-11-07T16:51:25.344Z,998.11
2022-11-07T16:52:25.321Z,998.17
2022-11-07T16:53:25.317Z,998.16
2022-11-07T16:54:25.335Z,998.15
2022-11-07T16:55:25.287Z,998.18
2022-11-07T16:56:25.260Z,998.16
2022-11-07T16:57:25.256Z,998.16
2022-11-07T16:58:25.248Z,998.13
2022-11-07T16:59:25.253Z,998.11
2022-11-07T17:00:25.239Z,998.09
2022-11-07T17:01:25.397Z,998.11
2022-11-07T17:02:25.437Z,998.09
2022-11-07T17:03:25.176Z,998.11
2022-11-07T17:04:25.189Z,998.09
2022-11-07T17:05:25.169Z,998.12
2022-11-07T17:06:25.171Z,998.11
2022-11-07T17:07:25.136Z,998.10
2022-11-07T17:08:25.133Z,998.17
2022-11-07T17:09:25.157Z,998.14
2022-11-07T17:10:25.103Z,998.13
2022-11-07T17:11:25.098Z,998.12
2022-11-07T17:12:25.107Z,998.10
2022-11-07T17:13:25.070Z,998.13
2022-11-07T17:14:25.086Z,998.09
2022-11-07T17:15:25.048Z,998.09
2022-11-07T17:16:25.042Z,998.07
2022-11-07T17:17:25.042Z,998.06
2022-11-07T17:18:25.040Z,998.04
2022-11-07T17:19:25.007Z,998.02
2022-11-07T17:20:49.994Z,998.07
2022-11-07T17:21:26.006Z,998.08
2022-11-07T17:22:24.971Z,998.07
2022-11-07T17:23:30.045Z,998.11
2022-11-07T17:24:25.947Z,998.11
2022-11-07T17:25:24.943Z,998.14
2022-11-07T17:26:24.929Z,998.12
2022-11-07T17:27:24.940Z,998.18
2022-11-07T17:28:24.900Z,998.16
2022-11-07T17:29:24.927Z,998.17
2022-11-07T17:30:24.894Z,998.15
2022-11-07T17:31:24.885Z,998.17
2022-11-07T17:32:24.859Z,998.15
2022-11-07T17:33:24.887Z,998.13
2022-11-07T17:34:24.871Z,998.23
2022-11-07T17:35:32.993Z,998.21
2022-11-07T17:36:25.805Z,998.16
2022-11-07T17:37:24.807Z,998.16
2022-11-07T17:38:24.804Z,998.17
2022-11-07T17:39:24.813Z,998.16
2022-11-07T17:40:24.768Z,998.18
2022-11-07T17:41:24.763Z,998.20
2022-11-07T17:42:24.772Z,998.18
2022-11-07T17:43:24.740Z,998.14
2022-11-07T17:44:24.743Z,998.24
2022-11-07T17:45:24.709Z,998.24
2022-11-07T17:46:24.724Z,998.22
2022-11-07T17:47:24.739Z,998.14
2022-11-07T17:48:24.694Z,998.15
2022-11-07T17:49:24.745Z,998.14
2022-11-07T17:50:24.666Z,998.16
2022-11-07T17:51:24.651Z,998.18
2022-11-07T17:52:24.650Z,998.18
2022-11-07T17:53:24.691Z,998.26
2022-11-07T17:54:29.291Z,998.18
2022-11-07T17:55:25.694Z,998.22
2022-11-07T17:56:24.607Z,998.18
2022-11-07T17:57:24.607Z,998.16
2022-11-07T17:58:24.564Z,998.18
2022-11-07T17:59:24.555Z,998.18